createdAt,value
2022-09-28T00:13:36.621Z,8.94
2022-09-28T00:16:31.934Z,8.95
2022-09-28T00:19:19.158Z,9.00
2022-09-28T00:21:56.949Z,8.89
2022-09-28T00:24:53.541Z,9.00
2022-09-28T00:27:51.549Z,8.94
2022-09-28T00:30:51.883Z,8.99
2022-09-28T00:33:46.761Z,9.04
2022-09-28T00:36:31.035Z,9.04
2022-09-28T00:39:21.704Z,9.07
2022-09-28T00:42:11.889Z,9.03
2022-09-28T00:44:43.248Z,8.78
2022-09-28T00:47:49.784Z,9.06
2022-09-28T00:51:12.227Z,9.01
2022-09-28T00:54:05.430Z,9.03
2022-09-28T00:56:51.597Z,8.98
2022-09-28T00:59:46.991Z,9.06
2022-09-28T01:02:43.171Z,9.12
2022-09-28T01:05:36.163Z,9.09
2022-09-28T01:08:31.999Z,9.23
2022-09-28T01:11:15.091Z,9.20
2022-09-28T01:14:06.996Z,9.25
2022-09-28T01:16:50.504Z,9.26
2022-09-28T01:20:09.400Z,9.21
2022-09-28T01:23:04.466Z,9.19
2022-09-28T01:26:18.716Z,9.08
2022-09-28T01:28:59.752Z,9.17
2022-09-28T01:31:43.019Z,8.96
2022-09-28T01:34:35.435Z,9.00
2022-09-28T01:37:45.641Z,9.18
2022-09-28T01:40:38.067Z,9.16
2022-09-28T01:43:38.653Z,9.11
2022-09-28T01:46:35.303Z,9.15
2022-09-28T01:49:49.198Z,9.19
2022-09-28T01:52:21.521Z,9.15
2022-09-28T01:55:11.249Z,9.26
2022-09-28T01:58:04.057Z,9.30
2022-09-28T02:01:02.984Z,9.37
2022-09-28T02:04:04.725Z,9.28
2022-09-28T02:07:17.844Z,9.21
2022-09-28T02:10:03.920Z,9.14
2022-09-28T02:12:51.672Z,9.30
2022-09-28T02:15:51.440Z,9.33
2022-09-28T02:18:42.918Z,9.16
2022-09-28T02:21:42.667Z,9.30
2022-09-28T02:24:47.040Z,9.07
2022-09-28T02:27:42.761Z,9.11
2022-09-28T02:30:36.682Z,9.00
2022-09-28T02:33:38.525Z,9.03
2022-09-28T02:36:49.062Z,9.13
2022-09-28T02:39:19.728Z,8.93
2022-09-28T02:42:27.663Z,9.20
2022-09-28T02:45:28.667Z,9.20
2022-09-28T02:49:04.989Z,9.26
2022-09-28T02:52:37.192Z,9.03
2022-09-28T02:55:38.739Z,9.14
2022-09-28T02:58:45.951Z,9.06
2022-09-28T03:02:21.021Z,9.06
2022-09-28T03:05:11.531Z,9.18
2022-09-28T03:08:13.271Z,9.20
2022-09-28T03:11:21.182Z,9.21
2022-09-28T03:14:16.803Z,9.21
2022-09-28T03:17:31.091Z,9.28
2022-09-28T03:20:25.663Z,9.31
2022-09-28T03:23:35.038Z,8.89
2022-09-28T03:26:27.813Z,9.24
2022-09-28T03:29:24.634Z,9.30
2022-09-28T03:32:23.208Z,9.36
2022-09-28T03:34:50.265Z,9.23
2022-09-28T03:37:44.556Z,9.44
2022-09-28T03:40:22.632Z,9.39
2022-09-28T03:46:42.379Z,9.51
2022-09-28T03:49:37.637Z,9.49
2022-09-28T03:52:30.395Z,9.44
2022-09-28T03:55:12.006Z,9.34
2022-09-28T03:58:52.475Z,9.35
2022-09-28T04:01:34.347Z,9.41
2022-09-28T04:04:26.700Z,9.38
2022-09-28T04:07:19.586Z,9.39
2022-09-28T04:10:00.419Z,9.23
2022-09-28T04:13:09.291Z,9.38
2022-09-28T04:16:02.964Z,9.25
2022-09-28T04:18:52.623Z,9.09
2022-09-28T04:21:48.311Z,9.24
2022-09-28T04:24:27.524Z,9.32
2022-09-28T04:27:32.450Z,9.29
2022-09-28T04:30:10.070Z,9.43
2022-09-28T04:33:00.540Z,9.38
2022-09-28T10:19:45.381Z,14.30
2022-09-28T10:22:31.378Z,14.74
2022-09-28T10:25:18.456Z,14.86
2022-09-28T10:27:57.620Z,14.45
2022-09-28T10:30:45.580Z,14.64
2022-09-28T10:33:38.110Z,14.77
2022-09-28T10:36:10.337Z,14.60
2022-09-28T10:38:44.644Z,13.86
2022-09-28T10:41:22.943Z,14.90
2022-09-28T10:44:11.159Z,15.71
2022-09-28T10:46:39.449Z,15.80
2022-09-28T10:49:24.334Z,16.35
2022-09-28T10:52:01.477Z,16.75
2022-09-28T10:54:37.924Z,14.76
2022-09-28T10:57:30.386Z,15.62
2022-09-28T11:00:21.747Z,16.08
2022-09-28T11:02:48.735Z,16.77
2022-09-28T11:05:55.384Z,17.02
2022-09-28T11:08:56.083Z,18.14
2022-09-28T11:12:03.340Z,18.76
2022-09-28T11:17:56.996Z,18.73
2022-09-28T11:20:37.179Z,18.74
2022-09-28T11:23:31.919Z,18.55
2022-09-28T11:26:19.843Z,18.16
2022-09-28T11:28:58.312Z,17.49
2022-09-28T11:32:29.544Z,18.34
2022-09-28T11:35:05.155Z,17.96
2022-09-28T11:38:05.469Z,17.68
2022-09-28T15:07:16.147Z,16.36
2022-09-28T15:20:42.744Z,16.02
2022-09-28T15:27:19.090Z,17.00
2022-09-28T15:30:25.388Z,16.87
2022-09-28T15:36:52.423Z,15.95
2022-09-28T15:50:05.565Z,15.35
2022-09-28T15:53:08.570Z,15.52
2022-09-28T16:50:27.520Z,13.99
2022-09-28T16:54:06.167Z,14.19
2022-09-28T17:03:52.118Z,13.83
2022-09-28T17:06:37.604Z,13.75
2022-09-28T17:12:43.612Z,13.32
2022-09-28T17:18:17.237Z,13.95
2022-09-28T17:21:13.826Z,14.00
2022-09-28T17:30:36.410Z,13.11
2022-09-28T17:34:03.372Z,12.76
2022-09-28T17:37:21.339Z,12.90
2022-09-28T17:47:03.024Z,13.20
2022-09-28T17:57:10.925Z,12.60
2022-09-28T18:00:00.864Z,12.63
2022-09-28T18:08:39.316Z,12.61
2022-09-28T18:11:35.198Z,12.51
2022-09-28T18:14:26.451Z,12.43
2022-09-28T18:17:10.549Z,12.48
2022-09-28T18:19:54.155Z,12.29
2022-09-28T18:23:03.222Z,12.31
2022-09-28T18:25:59.719Z,12.14
2022-09-28T18:28:44.407Z,12.15
2022-09-28T18:31:47.098Z,11.96
2022-09-28T18:34:38.261Z,11.88
2022-09-28T18:37:13.445Z,11.86
2022-09-28T18:40:07.161Z,11.38
2022-09-28T18:42:49.045Z,11.58
2022-09-28T18:45:38.352Z,11.79
2022-09-28T18:48:12.792Z,11.75
2022-09-28T18:51:13.595Z,11.73
2022-09-28T18:54:27.433Z,11.67
2022-09-28T19:00:43.702Z,11.41
2022-09-28T19:03:42.313Z,11.34
2022-09-28T19:09:44.517Z,10.99
2022-09-28T19:15:55.792Z,11.04
2022-09-28T19:18:50.174Z,10.92
2022-09-28T19:21:26.245Z,10.85
2022-09-28T19:24:26.507Z,11.15
2022-09-28T19:27:16.552Z,11.04
2022-09-28T19:30:21.431Z,11.01
2022-09-28T19:33:40.542Z,10.98
2022-09-28T19:36:45.862Z,10.65
2022-09-28T19:45:31.956Z,10.21
2022-09-28T19:52:18.458Z,10.45
2022-09-28T19:55:32.608Z,10.28
2022-09-28T19:58:38.652Z,10.08
2022-09-28T20:01:40.086Z,10.11
2022-09-28T20:04:22.173Z,9.95
2022-09-28T20:07:08.616Z,9.85
2022-09-28T20:09:51.889Z,9.83
2022-09-28T20:12:35.819Z,9.78
2022-09-28T20:15:37.018Z,10.03
2022-09-28T20:18:36.933Z,10.01
2022-09-28T20:21:26.445Z,9.85
2022-09-28T20:24:14.825Z,10.00
2022-09-28T20:26:54.676Z,10.12
2022-09-28T20:32:48.735Z,9.87
2022-09-28T20:35:33.308Z,9.70
2022-09-28T20:38:24.591Z,9.70
2022-09-28T20:41:17.506Z,9.65
2022-09-28T20:43:56.599Z,9.84
2022-09-28T20:47:01.483Z,9.94
2022-09-28T20:49:45.135Z,9.90
2022-09-28T20:52:38.396Z,9.92
2022-09-28T20:55:36.363Z,9.72
2022-09-28T20:58:33.992Z,9.63
2022-09-28T21:01:40.379Z,9.64
2022-09-28T21:11:23.164Z,9.48
2022-09-28T21:16:57.437Z,9.32
2022-09-28T21:20:28.979Z,9.24
2022-09-28T21:23:36.724Z,9.16
2022-09-28T21:29:24.881Z,9.07
2022-09-28T21:38:30.638Z,9.07
2022-09-28T21:53:38.027Z,8.97
2022-09-28T21:56:32.896Z,8.94
2022-09-28T22:00:00.533Z,8.91
2022-09-28T22:02:38.141Z,8.94
2022-09-28T22:05:21.507Z,8.77
2022-09-28T22:08:09.284Z,8.73
2022-09-28T22:11:16.952Z,8.54
2022-09-28T22:14:24.352Z,8.52
2022-09-28T22:26:56.108Z,8.35
2022-09-28T22:36:07.799Z,8.58
2022-09-28T22:38:48.986Z,8.33
2022-09-28T22:41:23.820Z,8.18
2022-09-28T22:47:16.111Z,8.20
2022-09-28T22:50:01.417Z,8.27
2022-09-28T22:55:45.706Z,8.41
2022-09-28T22:58:37.974Z,8.32
2022-09-28T23:01:45.448Z,8.06
2022-09-28T23:08:14.678Z,7.79
2022-09-28T23:17:52.994Z,7.62
2022-09-28T23:23:44.394Z,7.67
2022-09-28T23:26:27.314Z,7.77
2022-09-28T23:29:17.467Z,7.71
2022-09-28T23:32:05.349Z,7.70
2022-09-28T23:38:03.772Z,7.70
2022-09-28T23:40:46.736Z,7.55
2022-09-28T23:43:23.672Z,7.65
2022-09-28T23:45:59.740Z,7.63
2022-09-28T23:48:41.565Z,7.60
2022-09-28T23:54:31.736Z,7.64
2022-09-28T23:57:20.122Z,7.57
